Time;durP1;ratioP1;P1;durP2;ratioP2;P2;SDS_P1;SDS_P2;PMS_P1;PMS_P2;Temp;Humidity;BMP_temperature;BMP_pressure;BME280_temperature;BME280_humidity;BME280_pressure;Samples;Min_cycle;Max_cycle;Signal;HPM_P1;HPM_P2
2023/06/30 00:00:53;;;;;;;;;;;22.50;99.90;;;;;;5076073;28;20084;-67
2023/06/30 00:03:22;;;;;;;;;;;22.50;99.90;;;;;;5078133;28;20353;-67
2023/06/30 00:05:49;;;;;;;;;;;22.40;99.90;;;;;;5077992;28;20002;-68
2023/06/30 00:08:15;;;;;;;;;;;22.40;99.90;;;;;;5078256;28;20092;-68
2023/06/30 00:10:43;;;;;;;;;;;22.40;99.90;;;;;;5078410;28;20333;-68
2023/06/30 00:13:10;;;;;;;;;;;22.30;99.90;;;;;;5078223;28;20349;-68
2023/06/30 00:15:36;;;;;;;;;;;22.20;99.90;;;;;;5078053;28;20449;-68
2023/06/30 00:18:03;;;;;;;;;;;22.10;99.90;;;;;;5078248;28;20337;-68
2023/06/30 00:20:30;;;;;;;;;;;22.10;99.90;;;;;;5078112;28;20001;-68
2023/06/30 00:22:57;;;;;;;;;;;22.00;99.90;;;;;;5078064;28;20116;-68
2023/06/30 00:25:23;;;;;;;;;;;22.00;99.90;;;;;;5078174;28;20023;-68
2023/06/30 00:27:54;;;;;;;;;;;21.90;99.90;;;;;;5078177;28;20041;-68
2023/06/30 00:30:21;;;;;;;;;;;21.90;99.90;;;;;;5078079;28;20001;-68
2023/06/30 00:32:48;;;;;;;;;;;21.80;99.90;;;;;;5077951;28;20325;-68
2023/06/30 00:35:14;;;;;;;;;;;21.80;99.90;;;;;;5077766;28;20022;-68
2023/06/30 00:37:41;;;;;;;;;;;21.80;99.90;;;;;;5077384;28;20067;-68
2023/06/30 00:40:08;;;;;;;;;;;21.70;99.90;;;;;;5077901;28;20389;-68
2023/06/30 00:42:35;;;;;;;;;;;21.60;99.90;;;;;;5077548;28;20024;-68
2023/06/30 00:45:03;;;;;;;;;;;21.50;99.90;;;;;;5077576;28;20059;-68
2023/06/30 00:47:30;;;;;;;;;;;21.30;99.90;;;;;;5077640;28;20071;-68
2023/06/30 00:49:57;;;;;;;;;;;21.20;99.90;;;;;;5077708;28;20015;-68
2023/06/30 00:52:24;;;;;;;;;;;20.90;99.90;;;;;;5077425;28;20001;-68
2023/06/30 00:54:50;;;;;;;;;;;20.70;99.90;;;;;;5077624;28;20333;-68
2023/06/30 00:57:17;;;;;;;;;;;20.50;99.90;;;;;;5077158;28;20011;-68
2023/06/30 00:59:44;;;;;;;;;;;20.30;99.90;;;;;;5077310;28;20092;-68
2023/06/30 01:02:14;;;;;;;;;;;20.20;99.90;;;;;;5077144;28;20024;-67
2023/06/30 01:04:46;;;;;;;;;;;20.10;99.90;;;;;;5077412;28;20432;-68
2023/06/30 01:07:17;;;;;;;;;;;20.00;99.90;;;;;;5077376;28;20377;-68
2023/06/30 01:09:49;;;;;;;;;;;20.00;99.90;;;;;;5076957;28;20122;-66
2023/06/30 01:12:15;;;;;;;;;;;20.10;99.90;;;;;;5076232;28;19998;-67
2023/06/30 01:14:43;;;;;;;;;;;20.20;99.90;;;;;;5077315;28;20322;-66
2023/06/30 01:17:10;;;;;;;;;;;20.20;99.90;;;;;;5077202;28;20005;-66
2023/06/30 01:19:44;;;;;;;;;;;20.20;99.90;;;;;;5077537;28;20001;-67
2023/06/30 01:22:17;;;;;;;;;;;20.10;99.90;;;;;;5077038;28;20023;-66
2023/06/30 01:24:44;;;;;;;;;;;20.10;99.90;;;;;;5076663;28;20005;-67
2023/06/30 01:27:12;;;;;;;;;;;20.10;99.90;;;;;;5076791;28;20337;-67
2023/06/30 01:29:42;;;;;;;;;;;20.10;99.90;;;;;;5076484;28;20099;-67
2023/06/30 01:32:09;;;;;;;;;;;19.90;99.90;;;;;;5076640;28;20001;-67
2023/06/30 01:34:35;;;;;;;;;;;19.90;99.90;;;;;;5076433;28;20012;-68
2023/06/30 01:37:03;;;;;;;;;;;19.90;99.90;;;;;;5076084;28;20510;-67
2023/06/30 01:39:30;;;;;;;;;;;20.00;99.90;;;;;;5076612;28;19997;-67
2023/06/30 01:41:57;;;;;;;;;;;19.90;99.90;;;;;;5076443;28;20005;-67
2023/06/30 01:44:24;;;;;;;;;;;19.90;99.90;;;;;;5076220;28;20001;-66
2023/06/30 01:46:50;;;;;;;;;;;19.90;99.90;;;;;;5076364;28;20011;-67
2023/06/30 01:49:17;;;;;;;;;;;19.90;99.90;;;;;;5076305;28;20015;-67
2023/06/30 01:51:44;;;;;;;;;;;19.80;99.90;;;;;;5076444;28;20001;-67
2023/06/30 01:54:12;;;;;;;;;;;19.80;99.90;;;;;;5076250;28;20001;-67
2023/06/30 01:56:38;;;;;;;;;;;19.70;99.90;;;;;;5076312;28;20012;-66
2023/06/30 01:59:05;;;;;;;;;;;19.70;99.90;;;;;;5076149;28;20283;-67
2023/06/30 02:01:32;;;;;;;;;;;19.60;99.90;;;;;;5076009;28;20001;-67
2023/06/30 02:03:58;;;;;;;;;;;19.70;99.90;;;;;;5075902;28;20027;-67
2023/06/30 02:06:25;;;;;;;;;;;19.70;99.90;;;;;;5075783;28;20044;-67
2023/06/30 02:08:52;;;;;;;;;;;19.70;99.90;;;;;;5076039;28;20080;-67
2023/06/30 02:11:23;;;;;;;;;;;19.70;99.90;;;;;;5076073;28;20001;-67
2023/06/30 02:13:49;;;;;;;;;;;19.70;99.90;;;;;;5075928;28;20027;-67
2023/06/30 02:16:16;;;;;;;;;;;19.70;99.90;;;;;;5075725;28;20485;-67
2023/06/30 02:18:43;;;;;;;;;;;19.60;99.90;;;;;;5075887;28;20011;-67
2023/06/30 02:21:09;;;;;;;;;;;19.60;99.90;;;;;;5076255;28;20067;-67
2023/06/30 02:23:36;;;;;;;;;;;19.60;99.90;;;;;;5076017;28;20023;-67
2023/06/30 02:26:03;;;;;;;;;;;19.60;99.90;;;;;;5075794;28;20056;-67
2023/06/30 02:28:31;;;;;;;;;;;19.60;99.90;;;;;;5075841;28;20040;-67
2023/06/30 02:30:57;;;;;;;;;;;19.50;99.90;;;;;;5075691;28;20005;-67
2023/06/30 02:33:27;;;;;;;;;;;19.50;99.90;;;;;;5075891;28;20000;-67
2023/06/30 02:35:53;;;;;;;;;;;19.50;99.90;;;;;;5075660;28;20080;-69
2023/06/30 02:38:20;;;;;;;;;;;19.50;99.90;;;;;;5075066;28;20021;-68
2023/06/30 02:40:47;;;;;;;;;;;19.50;99.90;;;;;;5075645;28;20069;-68
2023/06/30 02:43:13;;;;;;;;;;;19.50;99.90;;;;;;5075763;28;20329;-68
2023/06/30 02:45:41;;;;;;;;;;;19.50;99.90;;;;;;5075493;28;20001;-68
2023/06/30 02:48:08;;;;;;;;;;;19.50;99.90;;;;;;5075990;28;20005;-68
2023/06/30 02:50:35;;;;;;;;;;;19.50;99.90;;;;;;5075793;28;20330;-68
2023/06/30 02:53:02;;;;;;;;;;;19.50;99.90;;;;;;5075301;28;20008;-68
2023/06/30 02:55:28;;;;;;;;;;;19.50;99.90;;;;;;5075382;28;20307;-68
2023/06/30 02:57:55;;;;;;;;;;;19.50;99.90;;;;;;5075248;28;20001;-67
2023/06/30 03:00:22;;;;;;;;;;;19.40;99.90;;;;;;5075269;28;20002;-68
2023/06/30 03:02:53;;;;;;;;;;;19.40;99.90;;;;;;5075297;28;20023;-68
2023/06/30 03:05:20;;;;;;;;;;;19.40;99.90;;;;;;5075305;28;20055;-68
2023/06/30 03:07:46;;;;;;;;;;;19.40;99.90;;;;;;5075334;28;20001;-67
2023/06/30 03:10:13;;;;;;;;;;;19.40;99.90;;;;;;5075683;28;20001;-68
2023/06/30 03:12:39;;;;;;;;;;;19.40;99.90;;;;;;5075003;28;20001;-68
2023/06/30 03:15:07;;;;;;;;;;;19.40;99.90;;;;;;5075368;28;20001;-68
2023/06/30 03:17:33;;;;;;;;;;;19.40;99.90;;;;;;5075297;28;20001;-68
2023/06/30 03:20:04;;;;;;;;;;;19.40;99.90;;;;;;5075446;28;20345;-68
2023/06/30 03:22:31;;;;;;;;;;;19.40;99.90;;;;;;5075293;28;20005;-68
2023/06/30 03:25:00;;;;;;;;;;;19.40;99.90;;;;;;5075742;28;20341;-68
2023/06/30 03:27:26;;;;;;;;;;;19.40;99.90;;;;;;5074949;28;20040;-68
2023/06/30 03:29:53;;;;;;;;;;;19.50;99.90;;;;;;5075404;28;20107;-68
2023/06/30 03:32:20;;;;;;;;;;;19.40;99.90;;;;;;5075103;28;20329;-68
2023/06/30 03:34:46;;;;;;;;;;;19.40;99.90;;;;;;5074877;28;20044;-68
2023/06/30 03:37:14;;;;;;;;;;;19.40;99.90;;;;;;5078744;28;20373;-68
2023/06/30 03:39:41;;;;;;;;;;;19.40;99.90;;;;;;5078766;28;20333;-68
2023/06/30 03:42:08;;;;;;;;;;;19.40;99.90;;;;;;5078688;28;20494;-68
2023/06/30 03:44:34;;;;;;;;;;;19.40;99.90;;;;;;5078431;28;20028;-68
2023/06/30 03:47:01;;;;;;;;;;;19.40;99.90;;;;;;5078670;28;20011;-68
2023/06/30 03:49:27;;;;;;;;;;;19.40;99.90;;;;;;5078705;28;20031;-68
2023/06/30 03:51:54;;;;;;;;;;;19.50;99.90;;;;;;5078580;28;20414;-68
2023/06/30 03:54:22;;;;;;;;;;;19.50;99.90;;;;;;5078661;28;20394;-68
2023/06/30 03:56:49;;;;;;;;;;;19.50;99.90;;;;;;5078635;28;20027;-67
2023/06/30 03:59:16;;;;;;;;;;;19.50;99.90;;;;;;5078490;28;20001;-67
2023/06/30 04:01:44;;;;;;;;;;;19.50;99.90;;;;;;5077995;28;20001;-67
2023/06/30 04:04:11;;;;;;;;;;;19.50;99.90;;;;;;5078175;28;20319;-67
2023/06/30 04:06:37;;;;;;;;;;;19.60;99.90;;;;;;5078099;28;20040;-69
2023/06/30 04:09:04;;;;;;;;;;;19.60;99.90;;;;;;5078462;28;20357;-68
2023/06/30 04:11:32;;;;;;;;;;;19.60;99.90;;;;;;5078315;28;20001;-68
2023/06/30 04:14:00;;;;;;;;;;;19.60;99.90;;;;;;5077814;28;20091;-68
2023/06/30 04:16:26;;;;;;;;;;;19.60;99.90;;;;;;5078316;28;20369;-68
2023/06/30 04:18:54;;;;;;;;;;;19.50;99.90;;;;;;5078169;28;20001;-68
2023/06/30 04:21:21;;;;;;;;;;;19.50;99.90;;;;;;5078136;28;20339;-68
2023/06/30 04:23:48;;;;;;;;;;;19.50;99.90;;;;;;5077630;28;20017;-68
2023/06/30 04:26:16;;;;;;;;;;;19.50;99.90;;;;;;5078013;28;20000;-68
2023/06/30 04:28:47;;;;;;;;;;;19.50;99.90;;;;;;5077977;28;20001;-68
2023/06/30 04:31:13;;;;;;;;;;;19.50;99.90;;;;;;5077696;28;20438;-68
2023/06/30 04:33:40;;;;;;;;;;;19.60;99.90;;;;;;5077514;28;20040;-68
2023/06/30 04:36:10;;;;;;;;;;;19.60;99.90;;;;;;5077635;28;20100;-68
2023/06/30 04:38:36;;;;;;;;;;;19.70;99.90;;;;;;5077476;28;20033;-68
2023/06/30 04:41:03;;;;;;;;;;;19.70;99.90;;;;;;5077464;28;20001;-68
2023/06/30 04:43:30;;;;;;;;;;;19.80;99.90;;;;;;5077662;28;20080;-69
2023/06/30 04:45:58;;;;;;;;;;;19.80;99.90;;;;;;5077456;28;20001;-69
2023/06/30 04:48:25;;;;;;;;;;;19.90;99.90;;;;;;5076367;28;20001;-68
2023/06/30 04:50:51;;;;;;;;;;;19.90;99.90;;;;;;5077427;28;20386;-69
2023/06/30 04:53:18;;;;;;;;;;;20.00;99.90;;;;;;5077516;28;20406;-69
2023/06/30 04:55:47;;;;;;;;;;;20.00;99.90;;;;;;5077382;28;20484;-69
2023/06/30 04:58:18;;;;;;;;;;;20.10;99.90;;;;;;5077344;28;20001;-69
2023/06/30 05:00:44;;;;;;;;;;;20.10;99.90;;;;;;5077593;28;20001;-68
2023/06/30 05:03:12;;;;;;;;;;;20.10;99.90;;;;;;5077166;28;20013;-68
2023/06/30 05:05:39;;;;;;;;;;;20.10;99.90;;;;;;5077333;28;20053;-68
2023/06/30 05:08:06;;;;;;;;;;;20.10;99.90;;;;;;5077116;28;20079;-68
2023/06/30 05:10:32;;;;;;;;;;;20.20;99.90;;;;;;5076926;28;20337;-68
2023/06/30 05:12:59;;;;;;;;;;;20.10;99.90;;;;;;5076734;28;20007;-68
2023/06/30 05:15:25;;;;;;;;;;;20.10;99.90;;;;;;5077224;28;20001;-68
2023/06/30 05:17:52;;;;;;;;;;;20.30;99.90;;;;;;5076937;28;20091;-68
2023/06/30 05:20:20;;;;;;;;;;;20.30;99.90;;;;;;5077013;28;20027;-68
2023/06/30 05:22:49;;;;;;;;;;;20.20;99.90;;;;;;5077332;28;20080;-68
2023/06/30 05:25:16;;;;;;;;;;;20.20;99.90;;;;;;5076903;28;20120;-68
2023/06/30 05:27:43;;;;;;;;;;;20.20;99.90;;;;;;5076826;28;20493;-68
2023/06/30 05:30:10;;;;;;;;;;;20.20;99.90;;;;;;5076405;28;20005;-69
2023/06/30 05:32:36;;;;;;;;;;;20.20;99.90;;;;;;5076523;28;20024;-67
2023/06/30 05:35:03;;;;;;;;;;;20.20;99.90;;;;;;5077019;28;20060;-68
2023/06/30 05:37:34;;;;;;;;;;;20.30;99.90;;;;;;5076435;28;20412;-68
2023/06/30 05:40:01;;;;;;;;;;;20.40;99.90;;;;;;5076569;28;20040;-69
2023/06/30 05:42:27;;;;;;;;;;;20.40;99.90;;;;;;5076491;28;20012;-68
2023/06/30 05:44:54;;;;;;;;;;;20.50;99.90;;;;;;5076289;28;20349;-68
2023/06/30 05:47:21;;;;;;;;;;;20.50;99.90;;;;;;5076049;28;20011;-68
2023/06/30 05:49:47;;;;;;;;;;;20.60;99.90;;;;;;5076298;28;20007;-68
2023/06/30 05:52:14;;;;;;;;;;;20.60;99.90;;;;;;5076097;28;20341;-67
2023/06/30 05:54:43;;;;;;;;;;;20.70;99.90;;;;;;5076115;28;20074;-67
2023/06/30 05:57:12;;;;;;;;;;;20.90;99.90;;;;;;5075659;28;20005;-68
2023/06/30 05:59:38;;;;;;;;;;;20.90;99.90;;;;;;5075969;28;20079;-68
2023/06/30 06:02:05;;;;;;;;;;;21.00;99.90;;;;;;5076329;28;20402;-68
2023/06/30 06:04:32;;;;;;;;;;;21.00;99.90;;;;;;5075680;28;20446;-68
2023/06/30 06:07:02;;;;;;;;;;;20.90;99.90;;;;;;5075694;28;20001;-68
2023/06/30 06:09:29;;;;;;;;;;;21.00;99.90;;;;;;5075713;28;20012;-68
2023/06/30 06:11:57;;;;;;;;;;;21.00;99.90;;;;;;5075601;28;20001;-68
2023/06/30 06:14:23;;;;;;;;;;;21.00;99.90;;;;;;5075977;28;20013;-68
2023/06/30 06:16:50;;;;;;;;;;;21.10;99.90;;;;;;5075897;28;20001;-68
2023/06/30 06:19:17;;;;;;;;;;;21.20;99.90;;;;;;5075884;28;20011;-68
2023/06/30 06:21:44;;;;;;;;;;;21.30;99.90;;;;;;5075850;28;20320;-68
2023/06/30 06:24:10;;;;;;;;;;;21.40;99.90;;;;;;5075581;28;20091;-68
2023/06/30 06:26:37;;;;;;;;;;;21.40;99.90;;;;;;5075809;28;20041;-68
2023/06/30 06:29:05;;;;;;;;;;;21.30;99.90;;;;;;5075849;28;20001;-69
2023/06/30 06:31:31;;;;;;;;;;;21.20;99.90;;;;;;5075649;28;20001;-68
2023/06/30 06:33:58;;;;;;;;;;;21.20;99.90;;;;;;5075483;28;20027;-69
2023/06/30 06:36:25;;;;;;;;;;;21.20;99.90;;;;;;5075024;28;20462;-69
2023/06/30 06:38:51;;;;;;;;;;;21.10;99.90;;;;;;5075376;28;20001;-69
2023/06/30 06:41:18;;;;;;;;;;;21.10;99.90;;;;;;5076031;28;20001;-69
2023/06/30 06:43:44;;;;;;;;;;;21.20;99.90;;;;;;5075738;28;20100;-69
2023/06/30 06:46:12;;;;;;;;;;;21.20;99.90;;;;;;5075872;28;20001;-69
2023/06/30 06:48:39;;;;;;;;;;;21.20;99.90;;;;;;5075715;28;20129;-68
2023/06/30 06:51:06;;;;;;;;;;;21.30;99.90;;;;;;5074698;28;20048;-69
2023/06/30 06:53:33;;;;;;;;;;;21.40;99.90;;;;;;5075032;28;20092;-69
2023/06/30 06:56:00;;;;;;;;;;;21.50;99.90;;;;;;5075631;28;20015;-68
2023/06/30 06:58:28;;;;;;;;;;;21.50;99.90;;;;;;5075444;28;20043;-69
2023/06/30 07:00:55;;;;;;;;;;;21.50;99.90;;;;;;5075479;28;20418;-68
2023/06/30 07:03:24;;;;;;;;;;;21.50;99.90;;;;;;5075222;28;20012;-68
2023/06/30 07:05:51;;;;;;;;;;;21.50;99.90;;;;;;5075481;28;20027;-68
2023/06/30 07:08:18;;;;;;;;;;;21.50;99.90;;;;;;5075535;28;20325;-69
2023/06/30 07:10:45;;;;;;;;;;;21.50;99.90;;;;;;5075064;28;20009;-68
2023/06/30 07:13:12;;;;;;;;;;;21.50;99.90;;;;;;5075445;28;20119;-69
2023/06/30 07:15:39;;;;;;;;;;;21.60;99.90;;;;;;5075520;28;20063;-69
2023/06/30 07:18:06;;;;;;;;;;;21.50;99.90;;;;;;5075789;28;20001;-68
2023/06/30 07:20:34;;;;;;;;;;;21.50;99.90;;;;;;5075837;28;20007;-68
2023/06/30 07:23:00;;;;;;;;;;;21.40;99.90;;;;;;5075510;28;20048;-68
2023/06/30 07:25:30;;;;;;;;;;;21.30;99.90;;;;;;5075741;28;20081;-67
2023/06/30 07:27:57;;;;;;;;;;;21.30;99.90;;;;;;5075531;28;20168;-68
2023/06/30 07:30:25;;;;;;;;;;;21.30;99.90;;;;;;5075390;28;20001;-68
2023/06/30 07:32:54;;;;;;;;;;;21.30;99.90;;;;;;5075377;28;20092;-69
2023/06/30 07:35:21;;;;;;;;;;;21.40;99.90;;;;;;5075320;28;20012;-70
2023/06/30 07:37:49;;;;;;;;;;;21.30;99.90;;;;;;5075308;28;20086;-69
2023/06/30 07:40:17;;;;;;;;;;;21.30;99.90;;;;;;5075394;28;20074;-68
2023/06/30 07:42:43;;;;;;;;;;;21.30;99.90;;;;;;5075168;28;20001;-68
2023/06/30 07:45:11;;;;;;;;;;;21.30;99.90;;;;;;5075558;28;20021;-68
2023/06/30 07:47:40;;;;;;;;;;;21.30;99.90;;;;;;5075397;28;20052;-68
2023/06/30 07:50:09;;;;;;;;;;;21.20;99.90;;;;;;5075439;28;20012;-68
2023/06/30 07:52:36;;;;;;;;;;;21.30;99.90;;;;;;5074548;28;20304;-68
2023/06/30 07:55:07;;;;;;;;;;;21.40;99.90;;;;;;5076345;28;20087;-68
2023/06/30 07:57:34;;;;;;;;;;;21.40;99.90;;;;;;5075538;28;20393;-69
2023/06/30 08:00:01;;;;;;;;;;;21.40;99.90;;;;;;5075649;28;20364;-69
2023/06/30 08:02:28;;;;;;;;;;;21.30;99.90;;;;;;5075671;28;20078;-69
2023/06/30 08:04:54;;;;;;;;;;;21.30;99.90;;;;;;5075358;28;20013;-69
2023/06/30 08:07:21;;;;;;;;;;;21.20;99.90;;;;;;5075171;28;20059;-69
2023/06/30 08:09:48;;;;;;;;;;;21.30;99.90;;;;;;5075753;28;20400;-69
2023/06/30 08:12:16;;;;;;;;;;;21.30;99.90;;;;;;5075419;28;20092;-69
2023/06/30 08:14:43;;;;;;;;;;;21.30;99.90;;;;;;5075226;28;20096;-69
2023/06/30 08:17:13;;;;;;;;;;;21.30;99.90;;;;;;5075269;28;20419;-69
2023/06/30 08:19:41;;;;;;;;;;;21.30;99.90;;;;;;5075145;28;20009;-67
2023/06/30 08:22:08;;;;;;;;;;;21.30;99.90;;;;;;5076829;28;20059;-69
2023/06/30 08:24:35;;;;;;;;;;;21.40;99.90;;;;;;5078955;28;20120;-67
2023/06/30 08:27:02;;;;;;;;;;;21.40;99.90;;;;;;5078750;28;20001;-68
2023/06/30 08:29:30;;;;;;;;;;;21.50;99.90;;;;;;5078226;28;20040;-68
2023/06/30 08:31:57;;;;;;;;;;;21.70;99.90;;;;;;5077984;28;20001;-70
2023/06/30 08:34:25;;;;;;;;;;;21.80;99.90;;;;;;5077661;28;20100;-70
2023/06/30 08:36:53;;;;;;;;;;;21.80;99.90;;;;;;5077754;28;20419;-68
2023/06/30 08:39:19;;;;;;;;;;;21.90;99.90;;;;;;5077724;28;20440;-68
2023/06/30 08:41:48;;;;;;;;;;;21.90;99.90;;;;;;5077919;28;20426;-69
2023/06/30 08:44:15;;;;;;;;;;;22.00;99.90;;;;;;5077994;28;20338;-69
2023/06/30 08:46:43;;;;;;;;;;;21.90;99.90;;;;;;5078484;28;20008;-68
2023/06/30 08:49:10;;;;;;;;;;;21.90;99.90;;;;;;5077950;28;20100;-68
2023/06/30 08:51:37;;;;;;;;;;;21.90;99.90;;;;;;5078055;28;20066;-68
2023/06/30 08:54:05;;;;;;;;;;;21.90;99.90;;;;;;5077916;28;20002;-68
2023/06/30 08:56:33;;;;;;;;;;;22.00;99.90;;;;;;5077965;28;20001;-69
2023/06/30 08:59:02;;;;;;;;;;;22.10;99.90;;;;;;5077788;28;20005;-69
2023/06/30 09:01:29;;;;;;;;;;;22.20;99.90;;;;;;5077504;28;20051;-69
2023/06/30 09:03:57;;;;;;;;;;;22.30;99.90;;;;;;5077929;28;20375;-69
2023/06/30 09:06:24;;;;;;;;;;;22.30;99.90;;;;;;5077297;28;20027;-69
2023/06/30 09:08:53;;;;;;;;;;;22.30;99.90;;;;;;5077720;28;20122;-69
2023/06/30 09:11:23;;;;;;;;;;;22.30;99.90;;;;;;5077347;28;20438;-69
2023/06/30 09:13:50;;;;;;;;;;;22.30;99.90;;;;;;5076943;28;20095;-69
2023/06/30 09:16:17;;;;;;;;;;;22.30;99.90;;;;;;5077119;28;20091;-68
2023/06/30 09:18:45;;;;;;;;;;;22.20;99.90;;;;;;5076801;28;20001;-68
2023/06/30 09:21:13;;;;;;;;;;;22.20;99.90;;;;;;5076857;28;20011;-69
2023/06/30 09:23:40;;;;;;;;;;;22.20;99.90;;;;;;5076661;28;20007;-69
2023/06/30 09:26:12;;;;;;;;;;;22.10;99.90;;;;;;5076931;28;20104;-69
2023/06/30 09:28:41;;;;;;;;;;;22.10;99.90;;;;;;5076487;28;19998;-69
2023/06/30 09:31:08;;;;;;;;;;;22.10;99.90;;;;;;5077177;28;20011;-68
2023/06/30 09:33:35;;;;;;;;;;;22.10;99.90;;;;;;5076234;28;20001;-68
2023/06/30 09:36:03;;;;;;;;;;;22.10;99.90;;;;;;5076633;28;20107;-69
2023/06/30 09:38:31;;;;;;;;;;;22.10;99.90;;;;;;5076191;28;20082;-68
2023/06/30 09:41:01;;;;;;;;;;;22.20;99.90;;;;;;5076303;28;20044;-69
2023/06/30 09:43:27;;;;;;;;;;;22.20;99.90;;;;;;5077125;28;20311;-68
2023/06/30 09:45:55;;;;;;;;;;;22.20;99.90;;;;;;5076344;28;20027;-68
2023/06/30 09:48:28;;;;;;;;;;;22.20;99.90;;;;;;5076416;28;20373;-69
2023/06/30 09:50:54;;;;;;;;;;;22.20;99.90;;;;;;5076127;28;19997;-69
2023/06/30 09:53:21;;;;;;;;;;;22.10;99.90;;;;;;5076433;28;20051;-68
2023/06/30 09:55:50;;;;;;;;;;;21.80;99.90;;;;;;5076534;28;20204;-69
2023/06/30 09:58:17;;;;;;;;;;;21.70;99.90;;;;;;5076118;28;20011;-69
2023/06/30 10:00:44;;;;;;;;;;;21.50;99.90;;;;;;5076393;28;20012;-69
2023/06/30 10:03:10;;;;;;;;;;;21.50;99.90;;;;;;5076353;28;20015;-68
2023/06/30 10:05:38;;;;;;;;;;;21.50;99.90;;;;;;5075470;28;20119;-68
2023/06/30 10:08:05;;;;;;;;;;;21.40;99.90;;;;;;5075558;28;20001;-69
2023/06/30 10:10:32;;;;;;;;;;;21.30;99.90;;;;;;5075619;28;20002;-69
2023/06/30 10:13:00;;;;;;;;;;;21.20;99.90;;;;;;5075944;28;20051;-68
2023/06/30 10:15:27;;;;;;;;;;;21.00;99.90;;;;;;5075622;28;20325;-69
2023/06/30 10:17:54;;;;;;;;;;;20.90;99.90;;;;;;5075159;28;20410;-68
2023/06/30 10:20:20;;;;;;;;;;;20.90;99.90;;;;;;5075541;28;20005;-68
2023/06/30 10:22:48;;;;;;;;;;;20.90;99.90;;;;;;5075195;28;20444;-68
2023/06/30 10:25:16;;;;;;;;;;;20.90;99.90;;;;;;5075522;28;20013;-70
2023/06/30 10:27:43;;;;;;;;;;;20.90;99.90;;;;;;5075178;28;20001;-67
2023/06/30 10:30:12;;;;;;;;;;;21.00;99.90;;;;;;5075560;28;20334;-68
2023/06/30 10:32:39;;;;;;;;;;;21.00;99.90;;;;;;5075056;28;20349;-68
2023/06/30 10:35:06;;;;;;;;;;;21.00;99.90;;;;;;5075256;28;20315;-68
2023/06/30 10:37:33;;;;;;;;;;;21.10;99.90;;;;;;5074956;28;20116;-69
2023/06/30 10:40:00;;;;;;;;;;;21.20;99.90;;;;;;5074774;28;20002;-69
2023/06/30 10:42:27;;;;;;;;;;;21.20;99.90;;;;;;5074821;28;20001;-69
2023/06/30 10:45:00;;;;;;;;;;;21.30;99.90;;;;;;5074143;28;20011;-69
2023/06/30 10:47:28;;;;;;;;;;;21.20;99.90;;;;;;5074968;28;19997;-69
2023/06/30 10:49:55;;;;;;;;;;;21.00;99.90;;;;;;5075258;28;20108;-69
2023/06/30 10:52:25;;;;;;;;;;;20.90;99.90;;;;;;5075252;28;20001;-69
2023/06/30 10:54:52;;;;;;;;;;;20.70;99.90;;;;;;5075210;28;20068;-69
2023/06/30 10:57:19;;;;;;;;;;;20.60;99.90;;;;;;5075350;28;20011;-69
2023/06/30 10:59:46;;;;;;;;;;;20.50;99.90;;;;;;5074706;28;20008;-68
2023/06/30 11:02:14;;;;;;;;;;;20.40;99.90;;;;;;5074716;28;20012;-69
2023/06/30 11:04:42;;;;;;;;;;;20.40;99.90;;;;;;5074733;28;20103;-69
2023/06/30 11:07:10;;;;;;;;;;;20.40;99.90;;;;;;5075030;28;20011;-69
2023/06/30 11:09:56;;;;;;;;;;;20.30;99.90;;;;;;5074904;28;20480;-69
2023/06/30 11:12:24;;;;;;;;;;;20.20;99.90;;;;;;5074937;28;20012;-69
2023/06/30 11:14:51;;;;;;;;;;;20.10;99.90;;;;;;5074842;28;20442;-69
2023/06/30 11:17:17;;;;;;;;;;;20.10;99.90;;;;;;5074637;28;20001;-69
2023/06/30 11:19:58;;;;;;;;;;;20.00;99.90;;;;;;5075072;28;20115;-69
2023/06/30 11:22:26;;;;;;;;;;;19.90;99.90;;;;;;5074843;28;19998;-69
2023/06/30 11:24:52;;;;;;;;;;;19.90;99.90;;;;;;5074273;28;20009;-69
2023/06/30 11:27:19;;;;;;;;;;;19.80;99.90;;;;;;5074507;28;20001;-69
2023/06/30 11:29:49;;;;;;;;;;;19.90;99.90;;;;;;5074353;28;20007;-67
2023/06/30 11:32:16;;;;;;;;;;;19.90;99.90;;;;;;5074598;28;20005;-69
2023/06/30 11:34:43;;;;;;;;;;;19.90;99.90;;;;;;5074275;28;20326;-69
2023/06/30 11:37:11;;;;;;;;;;;19.90;99.90;;;;;;5074041;28;20324;-69
2023/06/30 11:39:38;;;;;;;;;;;19.90;99.90;;;;;;5074514;28;20011;-69
2023/06/30 11:42:04;;;;;;;;;;;20.00;99.90;;;;;;5074435;28;20001;-69
2023/06/30 11:44:36;;;;;;;;;;;20.00;99.90;;;;;;5074543;28;20016;-68
2023/06/30 11:47:02;;;;;;;;;;;20.10;99.90;;;;;;5074179;28;20039;-68
2023/06/30 11:49:29;;;;;;;;;;;20.10;99.90;;;;;;5074314;28;20337;-68
2023/06/30 11:51:56;;;;;;;;;;;20.20;99.90;;;;;;5074262;28;20012;-68
2023/06/30 11:54:31;;;;;;;;;;;20.30;99.90;;;;;;5074467;28;20099;-68
2023/06/30 11:56:58;;;;;;;;;;;20.30;99.90;;;;;;5075922;28;20436;-68
2023/06/30 11:59:25;;;;;;;;;;;20.40;99.90;;;;;;5078207;28;20001;-68
2023/06/30 12:01:52;;;;;;;;;;;20.50;99.90;;;;;;5078027;28;20092;-68
2023/06/30 12:04:33;;;;;;;;;;;20.70;99.90;;;;;;5078089;28;20001;-68
2023/06/30 12:07:00;;;;;;;;;;;20.80;99.90;;;;;;5077825;28;20343;-68
2023/06/30 12:09:27;;;;;;;;;;;20.80;99.90;;;;;;5077484;28;20008;-68
2023/06/30 12:11:56;;;;;;;;;;;20.50;99.90;;;;;;5077987;28;20001;-68
2023/06/30 12:14:25;;;;;;;;;;;20.10;99.90;;;;;;5077391;28;20012;-68
2023/06/30 12:16:52;;;;;;;;;;;20.10;99.90;;;;;;5077865;28;20014;-68
2023/06/30 12:19:23;;;;;;;;;;;20.00;99.90;;;;;;5078033;28;20062;-68
2023/06/30 12:21:54;;;;;;;;;;;19.90;99.90;;;;;;5077855;28;20329;-68
2023/06/30 12:24:21;;;;;;;;;;;19.80;99.90;;;;;;5077322;28;20116;-68
2023/06/30 12:26:48;;;;;;;;;;;19.80;99.90;;;;;;5077710;28;20013;-68
2023/06/30 12:29:17;;;;;;;;;;;19.80;99.90;;;;;;5077468;28;20001;-68
2023/06/30 12:31:45;;;;;;;;;;;19.80;99.90;;;;;;5077582;28;20295;-67
2023/06/30 12:34:12;;;;;;;;;;;19.90;99.90;;;;;;5078031;28;20005;-69
2023/06/30 12:36:39;;;;;;;;;;;19.90;99.90;;;;;;5078037;28;20012;-69
2023/06/30 12:39:06;;;;;;;;;;;20.00;99.90;;;;;;5078054;28;20001;-68
2023/06/30 12:41:33;;;;;;;;;;;20.00;99.90;;;;;;5077803;28;20001;-68
2023/06/30 12:44:01;;;;;;;;;;;20.00;99.90;;;;;;5078121;28;20092;-68
2023/06/30 12:46:29;;;;;;;;;;;20.00;99.90;;;;;;5077587;28;20024;-68
2023/06/30 12:48:56;;;;;;;;;;;20.00;99.90;;;;;;5077030;28;20011;-68
2023/06/30 12:51:22;;;;;;;;;;;19.90;99.90;;;;;;5077219;28;20012;-68
2023/06/30 12:53:49;;;;;;;;;;;19.90;99.90;;;;;;5077499;28;20322;-68
2023/06/30 12:56:16;;;;;;;;;;;19.90;99.90;;;;;;5076951;28;20100;-68
2023/06/30 12:58:43;;;;;;;;;;;19.90;99.90;;;;;;5076677;28;20438;-68
2023/06/30 13:01:10;;;;;;;;;;;19.90;99.90;;;;;;5076826;28;20091;-68
2023/06/30 13:03:38;;;;;;;;;;;19.90;99.90;;;;;;5077168;28;20087;-67
2023/06/30 13:06:06;;;;;;;;;;;19.90;99.90;;;;;;5076875;28;20017;-68
2023/06/30 13:08:32;;;;;;;;;;;19.90;99.90;;;;;;5075631;28;20001;-69
2023/06/30 13:10:59;;;;;;;;;;;19.80;99.90;;;;;;5076776;28;20011;-69
2023/06/30 13:13:26;;;;;;;;;;;19.80;99.90;;;;;;5076641;28;20076;-69
2023/06/30 13:15:53;;;;;;;;;;;19.90;99.90;;;;;;5076643;28;20000;-68
2023/06/30 13:18:19;;;;;;;;;;;19.90;99.90;;;;;;5076372;28;20001;-68
2023/06/30 13:20:47;;;;;;;;;;;19.90;99.90;;;;;;5076171;28;20444;-68
2023/06/30 13:23:14;;;;;;;;;;;19.80;99.90;;;;;;5076395;28;20011;-69
2023/06/30 13:25:41;;;;;;;;;;;19.80;99.90;;;;;;5076311;28;20002;-68
2023/06/30 13:28:07;;;;;;;;;;;19.80;99.90;;;;;;5076678;28;20005;-69
2023/06/30 13:30:34;;;;;;;;;;;19.90;99.90;;;;;;5076531;28;20047;-68
2023/06/30 13:33:01;;;;;;;;;;;19.90;99.90;;;;;;5076191;28;20025;-68
2023/06/30 13:35:27;;;;;;;;;;;19.90;99.90;;;;;;5076063;28;20497;-68
2023/06/30 13:37:58;;;;;;;;;;;19.90;99.90;;;;;;5076015;28;20029;-69
2023/06/30 13:40:25;;;;;;;;;;;19.90;99.90;;;;;;5076292;28;20001;-68
2023/06/30 13:42:54;;;;;;;;;;;19.90;99.90;;;;;;5076325;28;20425;-69
2023/06/30 13:45:21;;;;;;;;;;;19.90;99.90;;;;;;5075815;28;20013;-68
2023/06/30 13:47:48;;;;;;;;;;;20.00;99.90;;;;;;5075902;28;20410;-68
2023/06/30 13:50:15;;;;;;;;;;;20.00;99.90;;;;;;5075770;28;20048;-68
2023/06/30 13:52:42;;;;;;;;;;;20.10;99.90;;;;;;5075975;28;20302;-69
2023/06/30 13:55:10;;;;;;;;;;;20.20;99.90;;;;;;5075899;28;20008;-68
2023/06/30 13:57:37;;;;;;;;;;;20.20;99.90;;;;;;5076064;28;20002;-68
2023/06/30 14:00:04;;;;;;;;;;;20.20;99.90;;;;;;5076105;28;20001;-68
2023/06/30 14:02:31;;;;;;;;;;;20.20;99.90;;;;;;5075660;28;20005;-68
2023/06/30 14:04:58;;;;;;;;;;;20.20;99.90;;;;;;5075778;28;20001;-68
2023/06/30 14:07:24;;;;;;;;;;;20.20;99.90;;;;;;5075764;28;20070;-68
2023/06/30 14:09:51;;;;;;;;;;;20.30;99.90;;;;;;5076104;28;20192;-68
2023/06/30 14:12:19;;;;;;;;;;;20.30;99.90;;;;;;5075671;28;20092;-68
2023/06/30 14:14:46;;;;;;;;;;;20.40;99.90;;;;;;5075805;28;20445;-68
2023/06/30 14:17:13;;;;;;;;;;;20.40;99.90;;;;;;5075745;28;20011;-68